Time;durP1;ratioP1;P1;durP2;ratioP2;P2;SDS_P1;SDS_P2;PMS_P1;PMS_P2;Temp;Humidity;BMP_temperature;BMP_pressure;BME280_temperature;BME280_humidity;BME280_pressure;Samples;Min_cycle;Max_cycle;Signal;HPM_P1;HPM_P2
2021/03/19 00:01:31;;;;;;;8.35;6.95;;;;;;;1.21;70.83;96437.91;5073365;28;20035;-72
2021/03/19 00:03:58;;;;;;;9.65;6.70;;;;;;;1.20;70.97;96429.34;5077590;28;20041;-72
2021/03/19 00:06:24;;;;;;;12.93;7.40;;;;;;;1.15;70.83;96420.44;5077455;28;20457;-72
2021/03/19 00:08:50;;;;;;;9.52;6.72;;;;;;;1.10;71.02;96418.34;5076840;28;20047;-73
2021/03/19 00:11:17;;;;;;;11.68;6.93;;;;;;;1.10;71.13;96426.09;5077040;28;20053;-72
2021/03/19 00:13:43;;;;;;;10.95;6.57;;;;;;;1.11;71.30;96422.53;5077069;28;20115;-72
2021/03/19 00:16:11;;;;;;;9.13;6.68;;;;;;;1.13;71.41;96422.38;5076991;28;20040;-71
2021/03/19 00:18:37;;;;;;;9.90;6.38;;;;;;;1.14;71.40;96427.41;5077212;28;20029;-72
2021/03/19 00:21:04;;;;;;;8.77;6.30;;;;;;;1.14;71.47;96414.47;5076732;28;20044;-72
2021/03/19 00:23:31;;;;;;;10.70;6.75;;;;;;;1.13;71.43;96415.44;5076996;28;20036;-72
2021/03/19 00:25:57;;;;;;;10.13;6.82;;;;;;;1.15;71.56;96420.44;5076754;28;20040;-72
2021/03/19 00:28:23;;;;;;;8.60;6.72;;;;;;;1.15;71.69;96417.88;5076770;28;20072;-72
2021/03/19 00:30:50;;;;;;;10.65;7.03;;;;;;;1.17;71.82;96421.91;5076367;28;20396;-72
2021/03/19 00:33:16;;;;;;;10.00;6.82;;;;;;;1.18;71.85;96418.38;5076507;28;20048;-72
2021/03/19 00:35:42;;;;;;;7.97;6.43;;;;;;;1.17;71.80;96419.31;5076556;28;20047;-72
2021/03/19 00:38:09;;;;;;;8.50;6.45;;;;;;;1.17;71.83;96415.94;5076407;28;20045;-71
2021/03/19 00:40:38;;;;;;;7.82;6.50;;;;;;;1.15;71.82;96413.50;5076574;28;20055;-72
2021/03/19 00:43:05;;;;;;;9.27;6.90;;;;;;;1.14;71.92;96408.53;5076261;28;20044;-72
2021/03/19 00:45:32;;;;;;;10.82;6.90;;;;;;;1.13;71.89;96407.69;5076462;28;20037;-72
2021/03/19 00:47:59;;;;;;;9.50;6.53;;;;;;;1.13;72.15;96406.88;5076417;28;20032;-72
2021/03/19 00:50:32;;;;;;;12.27;6.93;;;;;;;1.14;72.44;96411.91;5076441;28;20029;-72
2021/03/19 00:52:58;;;;;;;9.70;6.90;;;;;;;1.10;71.97;96396.88;5076461;28;20043;-72
2021/03/19 00:55:25;;;;;;;10.80;7.13;;;;;;;1.10;72.17;96402.06;5076254;28;20032;-72
2021/03/19 00:57:52;;;;;;;11.60;6.75;;;;;;;1.11;72.10;96403.66;5076307;28;20043;-72
2021/03/19 01:00:20;;;;;;;11.48;7.30;;;;;;;1.08;72.13;96397.03;5075974;28;20059;-72
2021/03/19 01:02:46;;;;;;;9.50;6.57;;;;;;;1.08;72.20;96394.47;5076283;28;20044;-72
2021/03/19 01:05:24;;;;;;;7.72;6.60;;;;;;;1.07;72.49;96402.34;5075808;28;20036;-72
2021/03/19 01:07:51;;;;;;;10.55;6.93;;;;;;;1.05;72.28;96399.13;5062661;28;20511;-72
2021/03/19 01:10:28;;;;;;;9.45;6.80;;;;;;;1.08;72.68;96398.81;5075691;28;20416;-72
2021/03/19 01:12:54;;;;;;;12.57;7.80;;;;;;;1.05;72.45;96394.78;5075675;28;20401;-72
2021/03/19 01:15:21;;;;;;;12.98;7.57;;;;;;;1.06;72.39;96398.19;5075469;28;20053;-72
2021/03/19 01:17:47;;;;;;;8.25;6.72;;;;;;;1.04;72.57;96402.69;5076093;28;20033;-72
2021/03/19 01:20:16;;;;;;;10.70;7.68;;;;;;;1.04;72.71;96402.69;5075694;28;20032;-72
2021/03/19 01:22:42;;;;;;;12.15;8.13;;;;;;;1.04;72.66;96394.94;5075747;28;20036;-71
2021/03/19 01:25:15;;;;;;;10.48;8.13;;;;;;;1.01;72.97;96390.91;5075478;28;20392;-72
2021/03/19 01:27:42;;;;;;;12.98;8.50;;;;;;;0.97;72.69;96389.59;5075686;28;20033;-71
2021/03/19 01:30:17;;;;;;;9.77;7.85;;;;;;;0.91;73.28;96385.88;5075863;28;20041;-72
2021/03/19 01:32:45;;;;;;;11.82;9.00;;;;;;;0.88;73.02;96383.59;5075480;28;20040;-72
2021/03/19 01:35:13;;;;;;;11.40;9.02;;;;;;;0.87;73.05;96379.41;5076066;28;20492;-72
2021/03/19 01:37:40;;;;;;;9.90;8.82;;;;;;;0.88;73.06;96375.06;5075182;28;20047;-72
2021/03/19 01:40:08;;;;;;;12.23;9.23;;;;;;;0.88;73.33;96377.63;5075154;28;20040;-72
2021/03/19 01:42:38;;;;;;;12.82;9.52;;;;;;;0.83;73.35;96370.38;5075083;28;20044;-72
2021/03/19 01:45:07;;;;;;;15.18;10.55;;;;;;;0.77;73.31;96373.59;5074004;28;20037;-72
2021/03/19 01:48:12;;;;;;;13.50;9.57;;;;;;;0.73;74.21;96375.66;5075277;28;20036;-71
2021/03/19 01:51:16;;;;;;;12.63;9.60;;;;;;;0.69;74.61;96376.13;5060926;28;20480;-72
2021/03/19 01:54:19;;;;;;;11.70;9.25;;;;;;;0.60;74.39;96365.78;5073715;28;20044;-72
2021/03/19 01:57:23;;;;;;;13.80;9.82;;;;;;;0.60;74.59;96368.38;5075161;28;20024;-72
2021/03/19 02:00:27;;;;;;;12.05;9.23;;;;;;;0.60;74.66;96365.78;5075055;28;20038;-72
2021/03/19 02:03:30;;;;;;;10.82;9.45;;;;;;;0.62;74.71;96367.44;5074805;28;20124;-72
2021/03/19 02:06:36;;;;;;;15.05;9.38;;;;;;;0.62;74.55;96359.69;5074930;28;20048;-72
2021/03/19 02:09:40;;;;;;;11.80;9.27;;;;;;;0.59;74.69;96360.81;5068951;28;20036;-72
2021/03/19 02:12:43;;;;;;;13.75;9.18;;;;;;;0.58;74.70;96362.56;5074511;28;20404;-72
2021/03/19 02:15:47;;;;;;;11.40;9.93;;;;;;;0.53;74.82;96359.66;5074712;28;20040;-72
2021/03/19 02:18:50;;;;;;;11.98;9.07;;;;;;;0.52;75.05;96357.22;5074488;28;20052;-72
2021/03/19 02:21:54;;;;;;;12.23;9.65;;;;;;;0.51;74.93;96347.88;5066242;28;20051;-72
2021/03/19 02:24:57;;;;;;;15.45;9.93;;;;;;;0.50;74.99;96348.84;5061285;28;20028;-72
2021/03/19 02:28:01;;;;;;;12.32;10.13;;;;;;;0.49;75.00;96347.22;5074217;28;20033;-72
2021/03/19 02:31:05;;;;;;;13.38;9.70;;;;;;;0.49;75.06;96339.50;5073167;28;20492;-72
2021/03/19 02:33:32;;;;;;;13.90;10.15;;;;;;;0.50;74.36;96336.75;5068122;28;20040;-72
2021/03/19 02:35:59;;;;;;;14.57;10.93;;;;;;;0.47;74.53;96334.47;5074033;28;20028;-72
2021/03/19 02:38:27;;;;;;;14.15;10.70;;;;;;;0.42;74.45;96338.50;5074392;28;20035;-72
2021/03/19 02:40:54;;;;;;;14.32;10.35;;;;;;;0.39;74.61;96340.41;5074200;28;20261;-72
2021/03/19 02:43:23;;;;;;;13.23;10.63;;;;;;;0.42;74.79;96338.50;5073919;28;20408;-72
2021/03/19 02:45:49;;;;;;;15.45;9.98;;;;;;;0.43;74.85;96334.97;5073974;28;20055;-72
2021/03/19 02:48:16;;;;;;;15.43;9.68;;;;;;;0.45;74.99;96333.03;5074564;28;20037;-72
2021/03/19 02:50:43;;;;;;;13.13;9.75;;;;;;;0.47;75.06;96342.22;5074052;28;20032;-72
2021/03/19 02:53:19;;;;;;;13.45;8.85;;;;;;;0.48;75.32;96335.28;5073583;28;20040;-72
2021/03/19 02:55:45;;;;;;;12.38;9.55;;;;;;;0.49;74.95;96345.47;5074023;28;20408;-72
2021/03/19 02:58:12;;;;;;;12.88;9.27;;;;;;;0.50;75.06;96347.06;5072821;28;20045;-72
2021/03/19 03:00:38;;;;;;;11.93;8.98;;;;;;;0.51;74.99;96348.69;5073501;28;20491;-72
2021/03/19 03:03:05;;;;;;;13.50;9.45;;;;;;;0.52;74.93;96345.13;5073585;28;20167;-72
2021/03/19 03:05:32;;;;;;;12.77;9.38;;;;;;;0.54;75.06;96337.25;5073893;28;20389;-72
2021/03/19 03:07:58;;;;;;;14.55;9.48;;;;;;;0.54;74.87;96335.47;5073632;28;20388;-72
2021/03/19 03:10:27;;;;;;;11.57;9.57;;;;;;;0.56;75.12;96340.47;5073573;28;20424;-72
2021/03/19 03:12:55;;;;;;;13.13;9.88;;;;;;;0.54;75.08;96330.28;5061797;28;20083;-71
2021/03/19 03:15:22;;;;;;;10.38;8.77;;;;;;;0.50;74.99;96325.63;5073891;28;20049;-72
2021/03/19 03:17:49;;;;;;;11.20;8.80;;;;;;;0.48;75.01;96327.53;5073048;28;20048;-72
2021/03/19 03:20:33;;;;;;;11.82;8.77;;;;;;;0.48;75.51;96324.97;5073383;28;20041;-72
2021/03/19 03:22:59;;;;;;;11.98;8.38;;;;;;;0.50;75.40;96329.00;5060344;28;20036;-72
2021/03/19 03:25:26;;;;;;;13.02;9.40;;;;;;;0.48;75.29;96324.97;5073667;28;20044;-72
2021/03/19 03:27:53;;;;;;;13.18;9.13;;;;;;;0.47;75.35;96328.53;5073237;28;20039;-72
2021/03/19 03:30:25;;;;;;;10.60;8.48;;;;;;;0.44;75.31;96326.25;5073492;28;20469;-72
2021/03/19 03:32:51;;;;;;;13.55;9.57;;;;;;;0.42;75.57;96326.41;5073433;28;20036;-72
2021/03/19 03:35:19;;;;;;;12.52;9.18;;;;;;;0.42;75.45;96329.00;5072808;28;20393;-72
2021/03/19 03:37:46;;;;;;;15.52;9.05;;;;;;;0.43;75.37;96335.75;5073239;28;20484;-72
2021/03/19 03:40:16;;;;;;;11.80;8.57;;;;;;;0.43;75.60;96327.22;5073406;28;20037;-72
2021/03/19 03:42:43;;;;;;;11.68;8.63;;;;;;;0.44;75.33;96328.81;5073084;28;20424;-72
2021/03/19 03:45:10;;;;;;;10.15;8.38;;;;;;;0.43;75.46;96319.47;5073196;28;20047;-72
2021/03/19 03:47:37;;;;;;;11.00;8.35;;;;;;;0.42;75.41;96321.25;5072911;28;20036;-72
2021/03/19 03:50:08;;;;;;;12.77;8.80;;;;;;;0.42;75.35;96323.84;5073022;28;20389;-72
2021/03/19 03:52:34;;;;;;;12.38;8.77;;;;;;;0.41;75.43;96317.06;5060396;28;20029;-72
2021/03/19 03:55:00;;;;;;;12.35;8.63;;;;;;;0.40;75.41;96323.19;5073447;28;20047;-72
2021/03/19 03:57:27;;;;;;;10.30;8.55;;;;;;;0.40;75.45;96318.03;5073244;28;20029;-71
2021/03/19 03:59:53;;;;;;;21.20;9.63;;;;;;;0.39;75.40;96331.88;5073408;28;20047;-72
2021/03/19 04:02:22;;;;;;;9.68;8.40;;;;;;;0.38;75.54;96327.69;5072945;28;20405;-72
2021/03/19 04:04:49;;;;;;;11.50;9.18;;;;;;;0.38;75.53;96322.53;5072995;28;20041;-72
2021/03/19 04:07:16;;;;;;;15.63;9.52;;;;;;;0.36;75.59;96327.03;5073674;28;20039;-72
2021/03/19 04:09:42;;;;;;;16.50;9.35;;;;;;;0.35;75.57;96328.78;5073373;28;20055;-72
2021/03/19 04:12:13;;;;;;;12.07;9.20;;;;;;;0.35;75.75;96328.00;5072863;28;20386;-72
2021/03/19 04:14:40;;;;;;;15.48;10.23;;;;;;;0.34;75.76;96334.94;5072281;28;20040;-72
2021/03/19 04:17:09;;;;;;;13.93;9.23;;;;;;;0.33;75.65;96330.72;5073614;28;20032;-72
2021/03/19 04:19:36;;;;;;;13.75;9.45;;;;;;;0.33;75.65;96329.91;5073042;28;20516;-72
2021/03/19 04:22:04;;;;;;;13.02;9.57;;;;;;;0.33;75.69;96329.91;5071042;28;20069;-72
2021/03/19 04:24:30;;;;;;;11.90;9.68;;;;;;;0.31;75.57;96331.84;5072815;28;20036;-72
2021/03/19 04:26:56;;;;;;;13.05;9.35;;;;;;;0.28;75.64;96332.97;5073104;28;20039;-72
2021/03/19 04:29:23;;;;;;;10.63;8.90;;;;;;;0.27;75.72;96330.53;5072626;28;20044;-72
2021/03/19 04:31:49;;;;;;;13.65;9.15;;;;;;;0.27;75.78;96331.34;5072733;28;20037;-72
2021/03/19 04:34:15;;;;;;;12.07;8.88;;;;;;;0.27;75.67;96328.75;5073022;28;20048;-72
2021/03/19 04:36:48;;;;;;;12.35;9.70;;;;;;;0.28;75.80;96334.75;5072534;28;20049;-72
2021/03/19 04:39:26;;;;;;;11.85;9.20;;;;;;;0.26;75.86;96339.25;5073133;28;20049;-72
2021/03/19 04:41:56;;;;;;;13.00;9.23;;;;;;;0.25;75.83;96335.84;5072706;28;20045;-72
2021/03/19 04:44:24;;;;;;;14.82;9.70;;;;;;;0.24;75.86;96344.56;5072717;28;20495;-72
2021/03/19 04:46:51;;;;;;;12.80;9.32;;;;;;;0.26;76.03;96339.25;5072630;28;20044;-72
2021/03/19 04:49:19;;;;;;;13.98;9.90;;;;;;;0.25;76.03;96338.44;5075906;28;20496;-72
2021/03/19 04:51:46;;;;;;;14.52;9.95;;;;;;;0.27;76.09;96340.84;5076246;28;20457;-72
2021/03/19 04:54:13;;;;;;;13.93;9.80;;;;;;;0.27;75.93;96331.34;5074551;28;20408;-72
2021/03/19 04:56:39;;;;;;;17.15;11.27;;;;;;;0.27;75.99;96335.69;5076625;28;20051;-72
2021/03/19 04:59:06;;;;;;;13.63;10.07;;;;;;;0.26;76.00;96336.69;5076326;28;20393;-72
2021/03/19 05:01:32;;;;;;;15.73;10.30;;;;;;;0.26;76.12;96342.63;5076147;28;20044;-72
2021/03/19 05:03:59;;;;;;;13.60;10.35;;;;;;;0.28;76.16;96337.34;5075714;28;20061;-72
2021/03/19 05:06:25;;;;;;;14.95;10.48;;;;;;;0.29;76.24;96337.16;5076206;28;20040;-72
2021/03/19 05:08:51;;;;;;;14.75;10.43;;;;;;;0.30;76.24;96341.38;5075584;28;20040;-73
2021/03/19 05:11:18;;;;;;;14.20;10.60;;;;;;;0.32;76.28;96339.44;5076726;28;20465;-72
2021/03/19 05:13:45;;;;;;;17.13;11.38;;;;;;;0.34;76.30;96350.41;5076027;28;20293;-72
2021/03/19 05:16:11;;;;;;;16.63;11.98;;;;;;;0.36;76.31;96339.94;5076330;28;20039;-72
2021/03/19 05:18:37;;;;;;;18.42;11.75;;;;;;;0.35;76.28;96346.84;5075807;28;20040;-72
2021/03/19 05:21:04;;;;;;;15.80;10.88;;;;;;;0.35;76.55;96349.44;5075785;28;20048;-72
2021/03/19 05:23:33;;;;;;;18.60;12.30;;;;;;;0.35;76.46;96354.59;5075595;28;20032;-72
2021/03/19 05:25:59;;;;;;;15.77;11.88;;;;;;;0.37;76.52;96355.25;5075531;28;20389;-72
2021/03/19 05:28:27;;;;;;;17.75;11.80;;;;;;;0.36;76.60;96356.22;5076324;28;20028;-72
2021/03/19 05:30:54;;;;;;;14.07;11.18;;;;;;;0.38;76.43;96350.91;5075613;28;20473;-72
2021/03/19 05:33:26;;;;;;;15.40;11.38;;;;;;;0.39;76.64;96353.31;5075554;28;20033;-72
2021/03/19 05:35:54;;;;;;;16.55;11.45;;;;;;;0.41;76.51;96355.75;5075363;28;20037;-72
2021/03/19 05:38:20;;;;;;;15.43;11.60;;;;;;;0.42;76.61;96357.38;5060117;28;20365;-72
2021/03/19 05:40:50;;;;;;;17.90;12.50;;;;;;;0.43;76.63;96361.56;5075471;28;20473;-72
2021/03/19 05:43:28;;;;;;;15.93;11.55;;;;;;;0.44;76.65;96355.41;5075432;28;20036;-72
2021/03/19 05:46:06;;;;;;;16.13;11.98;;;;;;;0.45;76.59;96356.25;5075324;28;20040;-72
2021/03/19 05:48:54;;;;;;;17.70;11.68;;;;;;;0.45;77.06;96357.06;5073990;28;20047;-72
2021/03/19 05:51:32;;;;;;;16.92;12.35;;;;;;;0.46;76.77;96355.28;5075052;28;20044;-72
2021/03/19 05:54:08;;;;;;;20.95;12.70;;;;;;;0.41;76.45;96363.47;5075285;28;20040;-72
2021/03/19 05:56:36;;;;;;;17.98;13.40;;;;;;;0.38;77.03;96367.19;5075334;28;20488;-72
2021/03/19 05:59:03;;;;;;;18.95;12.85;;;;;;;0.36;76.73;96370.91;5074111;28;20036;-72
2021/03/19 06:01:29;;;;;;;20.58;13.98;;;;;;;0.36;76.89;96363.16;5075388;28;20033;-72
2021/03/19 06:03:57;;;;;;;21.35;13.40;;;;;;;0.39;77.01;96361.06;5074621;28;20056;-71
2021/03/19 06:06:44;;;;;;;20.67;13.05;;;;;;;0.44;77.68;96370.09;5074836;28;20041;-72
2021/03/19 06:09:22;;;;;;;21.35;15.23;;;;;;;0.44;77.46;96370.09;5074767;28;20053;-72
2021/03/19 06:11:52;;;;;;;19.35;13.73;;;;;;;0.43;76.99;96368.50;5075216;28;20473;-71
2021/03/19 06:14:19;;;;;;;16.48;12.27;;;;;;;0.45;76.83;96369.16;5074764;28;20397;-72
2021/03/19 06:16:48;;;;;;;20.80;14.75;;;;;;;0.49;77.33;96379.00;5074639;28;20392;-72
2021/03/19 06:19:31;;;;;;;19.38;13.45;;;;;;;0.55;77.64;96378.38;5074910;28;20029;-72
2021/03/19 06:22:24;;;;;;;21.75;14.68;;;;;;;0.59;77.44;96379.69;5074676;28;20055;-72
2021/03/19 06:25:01;;;;;;;21.35;15.13;;;;;;;0.67;77.23;96378.06;5064678;28;20055;-72
2021/03/19 06:27:58;;;;;;;17.95;13.00;;;;;;;0.73;77.38;96387.78;5064429;28;20024;-72
2021/03/19 06:30:34;;;;;;;16.58;12.63;;;;;;;0.76;77.13;96387.47;5073826;28;20044;-72
2021/03/19 06:33:12;;;;;;;19.30;14.00;;;;;;;0.78;77.36;96385.53;5074679;28;20037;-72
2021/03/19 06:35:43;;;;;;;20.65;13.65;;;;;;;0.77;76.96;96384.72;5067262;28;20036;-73
2021/03/19 06:38:27;;;;;;;18.10;12.50;;;;;;;0.77;77.09;96389.88;5073345;28;20373;-72
2021/03/19 06:40:54;;;;;;;18.33;13.30;;;;;;;0.81;76.78;96400.69;5073035;28;20028;-72
2021/03/19 06:43:27;;;;;;;20.85;13.38;;;;;;;0.83;76.88;96397.97;5074298;28;20033;-72
2021/03/19 06:46:40;;;;;;;19.30;13.93;;;;;;;0.88;77.54;96406.03;5074255;28;20393;-72
2021/03/19 06:49:07;;;;;;;19.92;14.88;;;;;;;0.92;76.86;96399.59;5031389;28;20052;-72
2021/03/19 06:51:46;;;;;;;18.83;13.55;;;;;;;0.96;77.15;96401.69;5068824;28;20045;-72
2021/03/19 06:54:15;;;;;;;18.70;13.10;;;;;;;0.98;76.80;96394.59;5073995;28;20389;-72
2021/03/19 06:57:03;;;;;;;17.02;12.93;;;;;;;1.04;77.34;96402.69;5073984;28;20037;-71
2021/03/19 06:59:43;;;;;;;17.55;13.02;;;;;;;1.06;77.18;96398.19;5073600;28;20029;-72
2021/03/19 07:02:39;;;;;;;16.67;13.07;;;;;;;1.11;77.25;96398.50;5073765;28;20107;-72
2021/03/19 07:05:59;;;;;;;18.90;13.68;;;;;;;1.13;77.17;96396.56;5051593;28;20378;-72
2021/03/19 07:08:55;;;;;;;18.13;13.57;;;;;;;1.10;77.25;96397.69;5062334;28;20041;-72
2021/03/19 07:12:05;;;;;;;20.77;13.40;;;;;;;1.07;77.15;96405.78;5064898;28;20071;-71
2021/03/19 07:14:59;;;;;;;17.23;12.70;;;;;;;1.04;77.09;96400.09;5074019;28;20049;-72
2021/03/19 07:17:52;;;;;;;17.57;13.10;;;;;;;1.00;77.61;96403.00;5073599;28;20024;-72
2021/03/19 07:20:26;;;;;;;17.80;12.98;;;;;;;1.02;77.62;96408.81;5073486;28;20039;-71
2021/03/19 07:22:52;;;;;;;16.08;12.25;;;;;;;1.02;77.30;96406.22;5073541;28;20115;-72
2021/03/19 07:25:35;;;;;;;14.60;11.18;;;;;;;1.04;77.30;96411.22;5073210;28;20487;-72
2021/03/19 07:28:29;;;;;;;19.77;12.48;;;;;;;1.06;77.35;96411.88;5073640;28;20032;-72
2021/03/19 07:31:13;;;;;;;15.43;11.23;;;;;;;1.08;77.49;96409.94;5073355;28;20037;-72
2021/03/19 07:33:54;;;;;;;16.13;11.97;;;;;;;1.13;77.49;96415.44;5073494;28;20035;-71
2021/03/19 07:36:54;;;;;;;17.15;12.10;;;;;;;1.23;77.54;96420.47;5073292;28;20508;-72
2021/03/19 07:39:32;;;;;;;17.38;11.93;;;;;;;1.34;77.29;96421.94;5073286;28;20024;-71
2021/03/19 07:42:44;;;;;;;15.68;10.63;;;;;;;1.46;77.05;96423.22;5073596;28;20388;-72
2021/03/19 07:45:32;;;;;;;16.98;11.32;;;;;;;1.55;77.17;96421.44;5067735;28;20059;-72
2021/03/19 07:48:27;;;;;;;15.05;11.18;;;;;;;1.59;77.14;96423.53;5073345;28;20051;-72
2021/03/19 07:51:30;;;;;;;15.13;11.27;;;;;;;1.62;76.98;96423.22;5073173;28;20044;-72
2021/03/19 07:54:15;;;;;;;16.10;12.50;;;;;;;1.67;76.74;96434.88;5062307;28;20099;-71
2021/03/19 07:56:55;;;;;;;15.73;12.25;;;;;;;1.66;76.94;96439.22;5063165;28;20043;-72
2021/03/19 07:59:41;;;;;;;15.35;10.38;;;;;;;1.63;77.05;96436.97;5073154;28;20037;-72
2021/03/19 08:02:13;;;;;;;14.13;10.70;;;;;;;1.64;76.71;96438.59;5071945;28;20043;-72
2021/03/19 08:05:01;;;;;;;12.73;9.45;;;;;;;1.66;77.00;96430.66;5072468;28;20063;-72
2021/03/19 08:07:40;;;;;;;14.27;10.23;;;;;;;1.66;76.84;96438.41;5073272;28;20036;-73
2021/03/19 08:10:23;;;;;;;14.43;11.00;;;;;;;1.67;77.00;96440.84;5073102;28;20048;-72
2021/03/19 08:12:58;;;;;;;16.98;12.38;;;;;;;1.70;77.11;96439.69;5072892;28;20037;-72
2021/03/19 08:15:34;;;;;;;17.75;10.30;;;;;;;1.74;76.94;96443.56;5073366;28;20032;-72
2021/03/19 08:18:24;;;;;;;15.90;10.93;;;;;;;1.75;76.87;96445.22;5073309;28;20029;-72
2021/03/19 08:21:24;;;;;;;16.77;10.82;;;;;;;1.73;76.95;96442.78;5072674;28;20032;-72
2021/03/19 08:24:09;;;;;;;15.38;11.60;;;;;;;1.69;76.67;96443.25;5059113;28;20032;-72
2021/03/19 08:26:49;;;;;;;15.20;11.38;;;;;;;1.65;76.94;96447.16;5077129;28;20036;-72
2021/03/19 08:29:34;;;;;;;16.90;12.00;;;;;;;1.62;77.00;96443.13;5069728;28;20041;-72
2021/03/19 08:32:15;;;;;;;14.95;11.90;;;;;;;1.63;77.11;96453.28;5062638;28;20035;-72
2021/03/19 08:34:49;;;;;;;15.07;12.30;;;;;;;1.62;77.06;96445.69;5076630;28;20499;-72
2021/03/19 08:37:31;;;;;;;16.25;12.25;;;;;;;1.60;77.29;96445.84;5077194;28;20036;-72
2021/03/19 08:39:59;;;;;;;18.08;13.32;;;;;;;1.60;76.99;96453.59;5077081;28;20045;-72
2021/03/19 08:42:40;;;;;;;16.63;12.75;;;;;;;1.59;77.34;96453.75;5076385;28;20040;-72
2021/03/19 08:45:16;;;;;;;16.60;12.43;;;;;;;1.57;77.18;96459.06;5076440;28;20419;-74
2021/03/19 08:47:47;;;;;;;17.98;13.73;;;;;;;1.54;77.17;96456.81;5064771;28;20477;-72
2021/03/19 08:50:41;;;;;;;18.48;13.80;;;;;;;1.56;77.89;96461.84;5076359;28;20037;-72
2021/03/19 08:53:28;;;;;;;21.33;14.45;;;;;;;1.57;78.12;96458.28;5076636;28;20040;-72
2021/03/19 08:56:03;;;;;;;20.42;14.85;;;;;;;1.57;78.00;96464.25;5075783;28;20040;-72
2021/03/19 08:58:29;;;;;;;18.42;13.88;;;;;;;1.60;77.66;96463.16;5076429;28;20036;-72
2021/03/19 09:01:03;;;;;;;19.80;14.13;;;;;;;1.61;77.54;96468.13;5076778;28;20028;-72
2021/03/19 09:03:41;;;;;;;21.05;15.35;;;;;;;1.65;78.20;96465.25;5076250;28;20388;-72
2021/03/19 09:06:11;;;;;;;25.15;12.15;;;;;;;1.73;79.57;96468.63;5076174;28;20044;-72
2021/03/19 09:08:43;;;;;;;19.40;13.10;;;;;;;2.10;80.08;96472.50;5075101;28;20058;-72
2021/03/19 09:11:18;;;;;;;16.60;13.25;;;;;;;2.23;78.27;96470.19;5074638;28;20049;-72
2021/03/19 09:14:00;;;;;;;21.70;14.27;;;;;;;2.25;77.84;96475.22;5075892;28;20495;-73
2021/03/19 09:16:44;;;;;;;18.60;12.55;;;;;;;2.24;77.91;96478.75;5062160;28;20040;-72
2021/03/19 09:19:42;;;;;;;16.67;12.55;;;;;;;2.27;77.99;96480.22;5075661;28;20033;-73
2021/03/19 09:22:24;;;;;;;15.68;11.90;;;;;;;2.27;77.66;96477.63;5076141;28;20044;-72
2021/03/19 09:25:12;;;;;;;14.98;11.20;;;;;;;2.25;77.72;96482.97;5075726;28;20067;-72
2021/03/19 09:27:42;;;;;;;13.93;10.73;;;;;;;2.17;77.31;96481.22;5066811;28;20040;-72
2021/03/19 09:30:21;;;;;;;14.48;10.60;;;;;;;2.02;77.46;96481.06;5075669;28;20353;-72
2021/03/19 09:32:54;;;;;;;13.02;9.88;;;;;;;1.94;77.80;96488.81;5076002;28;20056;-72
2021/03/19 09:35:44;;;;;;;12.82;9.77;;;;;;;1.90;78.55;96491.91;5075255;28;20032;-72
2021/03/19 09:38:23;;;;;;;17.13;12.25;;;;;;;1.91;78.33;96491.75;5075274;28;20067;-72
2021/03/19 09:41:04;;;;;;;12.80;9.32;;;;;;;1.89;78.36;96491.09;5076007;28;20036;-72
2021/03/19 09:44:00;;;;;;;13.57;8.27;;;;;;;1.89;79.13;96495.44;5075582;28;20039;-72
2021/03/19 09:46:31;;;;;;;13.02;9.15;;;;;;;1.92;78.42;96490.75;5066618;28;20036;-72
2021/03/19 09:49:08;;;;;;;11.90;8.73;;;;;;;2.02;78.73;96500.97;5075815;28;20044;-72
2021/03/19 09:51:42;;;;;;;11.30;8.40;;;;;;;2.03;78.53;96493.00;5075427;28;20464;-72
2021/03/19 09:54:19;;;;;;;9.82;7.65;;;;;;;2.12;78.86;96498.19;5075794;28;20033;-72
2021/03/19 09:56:46;;;;;;;11.52;8.23;;;;;;;2.19;78.48;96502.53;5075208;28;20033;-72
2021/03/19 09:59:24;;;;;;;12.18;8.70;;;;;;;2.27;78.98;96506.09;5074734;28;20049;-74
2021/03/19 10:01:51;;;;;;;11.60;8.48;;;;;;;2.37;78.64;96509.31;5064354;28;20036;-72
2021/03/19 10:04:29;;;;;;;13.45;9.85;;;;;;;2.38;78.36;96514.31;5074889;28;20048;-72
2021/03/19 10:06:56;;;;;;;11.48;9.40;;;;;;;2.31;77.76;96510.78;5075270;28;20036;-72
2021/03/19 10:09:26;;;;;;;12.90;10.02;;;;;;;2.24;77.60;96515.78;5074672;28;20059;-72
2021/03/19 10:11:56;;;;;;;14.50;10.60;;;;;;;2.19;77.66;96518.06;5075178;28;20500;-72
2021/03/19 10:14:35;;;;;;;15.77;11.00;;;;;;;2.13;77.86;96518.72;5074770;28;20044;-72
2021/03/19 10:17:36;;;;;;;16.25;10.70;;;;;;;2.11;77.98;96517.28;5074183;28;20052;-72
2021/03/19 10:20:18;;;;;;;19.42;13.10;;;;;;;2.06;77.88;96517.78;5053762;28;20469;-72
2021/03/19 10:22:52;;;;;;;18.48;12.85;;;;;;;2.02;78.03;96530.22;5074988;28;20036;-72
2021/03/19 10:25:26;;;;;;;17.93;13.03;;;;;;;1.97;77.95;96531.66;5074854;28;20416;-72
2021/03/19 10:27:54;;;;;;;;;;;;;;;1.92;77.77;96526.97;5066123;28;20036;-72
2021/03/19 10:30:27;;;;;;;22.67;14.57;;;;;;;1.83;77.95;96535.72;5074317;28;19934;-72
2021/03/19 10:32:58;;;;;;;16.45;10.45;;;;;;;1.75;78.15;96530.53;5073717;28;20041;-72
2021/03/19 10:35:34;;;;;;;20.77;14.55;;;;;;;1.72;78.05;96528.25;5074529;28;20045;-72
2021/03/19 10:38:15;;;;;;;20.48;14.18;;;;;;;1.72;78.20;96529.06;5074322;28;20033;-72
2021/03/19 10:40:50;;;;;;;20.80;14.30;;;;;;;1.72;78.33;96531.66;5074291;28;20033;-72
2021/03/19 10:43:45;;;;;;;20.95;14.95;;;;;;;1.75;78.37;96533.09;5074724;28;20032;-72
2021/03/19 10:46:15;;;;;;;22.80;15.23;;;;;;;1.80;78.41;96533.44;5069440;28;20041;-72
2021/03/19 10:48:56;;;;;;;19.20;12.75;;;;;;;1.87;78.39;96531.00;5074267;28;20032;-73
2021/03/19 10:51:45;;;;;;;20.98;14.30;;;;;;;2.00;78.43;96533.94;5065988;28;20476;-72
2021/03/19 10:54:17;;;;;;;20.50;14.00;;;;;;;2.17;78.47;96534.72;5073775;28;20043;-72
2021/03/19 10:56:54;;;;;;;21.05;14.52;;;;;;;2.34;78.10;96538.91;5073795;28;20044;-74
2021/03/19 10:59:32;;;;;;;20.77;14.18;;;;;;;2.50;77.66;96534.69;5074751;28;20446;-72
2021/03/19 11:02:16;;;;;;;18.67;12.68;;;;;;;2.64;77.10;96529.63;5073856;28;20051;-72
2021/03/19 11:05:07;;;;;;;18.65;13.20;;;;;;;2.96;76.85;96529.69;5073891;28;20032;-72
2021/03/19 11:07:38;;;;;;;19.33;12.93;;;;;;;3.52;77.60;96524.41;5066729;28;20059;-72
2021/03/19 11:10:19;;;;;;;15.57;11.75;;;;;;;3.98;76.13;96520.03;5073908;28;20045;-72
2021/03/19 11:12:53;;;;;;;12.95;8.93;;;;;;;4.39;75.90;96519.69;5074026;28;20040;-72
2021/03/19 11:15:22;;;;;;;;;;;;;;;4.59;69.10;96512.19;5074135;28;20408;-72
2021/03/19 11:18:12;;;;;;;9.80;7.80;;;;;;;4.84;70.18;96511.94;5073660;28;20385;-72
2021/03/19 11:20:40;;;;;;;10.50;6.82;;;;;;;4.91;72.84;96517.22;5073584;28;20436;-72
2021/03/19 11:23:21;;;;;;;10.57;8.30;;;;;;;4.76;69.22;96525.81;5073972;28;20032;-72
2021/03/19 11:25:49;;;;;;;9.05;7.10;;;;;;;4.36;72.62;96542.59;5073506;28;20044;-72
2021/03/19 11:28:29;;;;;;;7.53;5.93;;;;;;;3.71;72.47;96546.50;5073249;28;20036;-72
2021/03/19 11:31:37;;;;;;;8.73;6.40;;;;;;;3.28;73.29;96546.91;5073385;28;20416;-72
2021/03/19 11:34:06;;;;;;;7.53;5.35;;;;;;;2.83;73.97;96553.53;5057303;28;20067;-72
2021/03/19 11:37:14;;;;;;;6.15;5.18;;;;;;;2.38;75.53;96549.75;5073094;28;20031;-72
2021/03/19 11:39:49;;;;;;;7.53;6.32;;;;;;;2.12;75.92;96553.34;5031211;28;20033;-72
2021/03/19 11:42:18;;;;;;;7.75;6.00;;;;;;;2.23;79.64;96558.19;5068969;28;20036;-72
2021/03/19 11:44:46;;;;;;;9.32;6.70;;;;;;;2.13;76.69;96554.13;5073150;28;20037;-72
2021/03/19 11:47:52;;;;;;;9.95;7.65;;;;;;;1.88;77.38;96555.91;5073172;28;20028;-72
2021/03/19 11:50:40;;;;;;;10.98;7.82;;;;;;;1.64;77.79;96557.50;5051817;28;20051;-72
2021/03/19 11:53:11;;;;;;;12.18;9.02;;;;;;;1.50;77.30;96558.91;5073249;28;20062;-72
2021/03/19 11:55:42;;;;;;;12.20;9.10;;;;;;;1.41;77.69;96559.88;5072631;28;20041;-71
2021/03/19 11:58:13;;;;;;;12.25;9.23;;;;;;;1.39;78.24;96567.75;5073430;28;20041;-72
2021/03/19 12:00:42;;;;;;;11.85;8.70;;;;;;;1.42;78.13;96567.44;5072627;28;20436;-72
2021/03/19 12:03:26;;;;;;;12.75;9.82;;;;;;;1.49;78.54;96571.97;5073173;28;20415;-72
2021/03/19 12:05:52;;;;;;;12.30;9.23;;;;;;;1.54;78.08;96575.72;5072904;28;20396;-72
2021/03/19 12:08:18;;;;;;;14.10;9.88;;;;;;;1.57;78.13;96574.59;5072741;28;20048;-72
2021/03/19 12:10:44;;;;;;;14.60;11.00;;;;;;;1.62;78.16;96574.94;5072714;28;20048;-72
2021/03/19 12:13:14;;;;;;;12.90;9.00;;;;;;;1.68;78.17;96571.72;5072940;28;20048;-71